Time;durP1;ratioP1;P1;durP2;ratioP2;P2;SDS_P1;SDS_P2;PMS_P1;PMS_P2;Temp;Humidity;BMP_temperature;BMP_pressure;BME280_temperature;BME280_humidity;BME280_pressure;Samples;Min_cycle;Max_cycle;Signal;HPM_P1;HPM_P2
2021/03/12 00:01:35;;;;;;;;;;;;;;;;;;4951891;28;19934;-68
2021/03/12 00:04:02;;;;;;;;;;;;;;;;;;4953079;28;20013;-68
2021/03/12 00:06:28;;;;;;;;;;;;;;;;;;4951510;28;20334;-67
2021/03/12 00:08:55;;;;;;;;;;;;;;;;;;4947419;28;19990;-68
2021/03/12 00:11:21;;;;;;;;;;;;;;;;;;4951501;28;20021;-68
2021/03/12 00:13:48;;;;;;;;;;;;;;;;;;4955509;28;20302;-66
2021/03/12 00:16:14;;;;;;;;;;;;;;;;;;4953247;28;19926;-67
2021/03/12 00:18:41;;;;;;;;;;;;;;;;;;4954692;29;19935;-67
2021/03/12 00:21:07;;;;;;;;;;;;;;;;;;4954529;28;19930;-68
2021/03/12 00:23:34;;;;;;;;;;;;;;;;;;4963633;28;19995;-67
2021/03/12 00:26:00;;;;;;;;;;;;;;;;;;4957302;28;20410;-67
2021/03/12 00:28:27;;;;;;;;;;;;;;;;;;4959987;28;19985;-67
2021/03/12 00:30:53;;;;;;;;;;;;;;;;;;4966653;28;19998;-68
2021/03/12 00:33:20;;;;;;;;;;;;;;;;;;4957434;28;20375;-67
2021/03/12 00:35:46;;;;;;;;;;;;;;;;;;4952754;28;20016;-67
2021/03/12 00:38:13;;;;;;;;;;;;;;;;;;4952717;28;20009;-67
2021/03/12 00:40:39;;;;;;;;;;;;;;;;;;4963814;28;20086;-67
2021/03/12 00:43:06;;;;;;;;;;;;;;;;;;4962437;28;19926;-68
2021/03/12 00:45:32;;;;;;;;;;;;;;;;;;4956838;28;20013;-68
2021/03/12 00:47:59;;;;;;;;;;;;;;;;;;4955763;28;20005;-67
2021/03/12 00:50:25;;;;;;;;;;;;;;;;;;4968729;28;19927;-67
2021/03/12 00:52:52;;;;;;;;;;;;;;;;;;4970274;28;20018;-66
2021/03/12 00:55:18;;;;;;;;;;;;;;;;;;4956701;28;19926;-68
2021/03/12 00:57:45;;;;;;;;;;;;;;;;;;4956178;28;19933;-67
2021/03/12 01:00:11;;;;;;;;;;;;;;;;;;4956858;28;19926;-69
2021/03/12 01:02:38;;;;;;;;;;;;;;;;;;4960770;28;20301;-67
2021/03/12 01:05:04;;;;;;;;;;;;;;;;;;4956627;29;19927;-66
2021/03/12 01:07:31;;;;;;;;;;;;;;;;;;4958580;28;19926;-67
2021/03/12 01:09:57;;;;;;;;;;;;;;;;;;4960696;28;19933;-66
2021/03/12 01:12:24;;;;;;;;;;;;;;;;;;4956606;28;19930;-67
2021/03/12 01:14:50;;;;;;;;;;;;;;;;;;4954991;28;20659;-67
2021/03/12 01:17:17;;;;;;;;;;;;;;;;;;4961848;28;20099;-67
2021/03/12 01:19:43;;;;;;;;;;;;;;;;;;4963124;28;20021;-68
2021/03/12 01:22:10;;;;;;;;;;;;;;;;;;4955924;28;19931;-67
2021/03/12 01:24:36;;;;;;;;;;;;;;;;;;4956208;28;20014;-67
2021/03/12 01:27:03;;;;;;;;;;;;;;;;;;4956860;28;19926;-67
2021/03/12 01:29:29;;;;;;;;;;;;;;;;;;4958469;28;20029;-68
2021/03/12 01:31:56;;;;;;;;;;;;;;;;;;4957309;28;20371;-68
2021/03/12 01:34:22;;;;;;;;;;;;;;;;;;4949024;28;20271;-67
2021/03/12 01:36:49;;;;;;;;;;;;;;;;;;4954506;28;19931;-67
2021/03/12 01:39:15;;;;;;;;;;;;;;;;;;4956580;28;20383;-66
2021/03/12 01:41:42;;;;;;;;;;;;;;;;;;4957978;28;19930;-68
2021/03/12 01:44:08;;;;;;;;;;;;;;;;;;4952161;28;19926;-68
2021/03/12 01:46:35;;;;;;;;;;;;;;;;;;4959337;28;19926;-67
2021/03/12 01:49:01;;;;;;;;;;;;;;;;;;4968596;28;19934;-68
2021/03/12 01:51:28;;;;;;;;;;;;;;;;;;4958198;28;19934;-68
2021/03/12 01:53:54;;;;;;;;;;;;;;;;;;4957430;28;19973;-68
2021/03/12 01:56:21;;;;;;;;;;;;;;;;;;4962636;28;20446;-68
2021/03/12 01:58:47;;;;;;;;;;;;;;;;;;4952991;28;19937;-67
2021/03/12 02:01:14;;;;;;;;;;;;;;;;;;4954253;28;20302;-68
2021/03/12 02:03:40;;;;;;;;;;;;;;;;;;4957832;28;19933;-68
2021/03/12 02:06:07;;;;;;;;;;;;;;;;;;4955267;29;20167;-68
2021/03/12 02:08:33;;;;;;;;;;;;;;;;;;4954145;29;19933;-67
2021/03/12 02:11:00;;;;;;;;;;;;;;;;;;4945504;28;20017;-66
2021/03/12 02:13:26;;;;;;;;;;;;;;;;;;4956116;28;20298;-66
2021/03/12 02:15:53;;;;;;;;;;;;;;;;;;4956925;28;19926;-67
2021/03/12 02:18:20;;;;;;;;;;;;;;;;;;4955290;28;19949;-67
2021/03/12 02:20:46;;;;;;;;;;;;;;;;;;4971010;28;19934;-68
2021/03/12 02:23:13;;;;;;;;;;;;;;;;;;4949877;28;20045;-68
2021/03/12 02:25:39;;;;;;;;;;;;;;;;;;4953777;28;19972;-68
2021/03/12 02:28:06;;;;;;;;;;;;;;;;;;4955523;28;20401;-68
2021/03/12 02:30:32;;;;;;;;;;;;;;;;;;4957292;28;19981;-68
2021/03/12 02:32:59;;;;;;;;;;;;;;;;;;4962864;28;19973;-68
2021/03/12 02:35:25;;;;;;;;;;;;;;;;;;4955274;28;20053;-68
2021/03/12 02:37:52;;;;;;;;;;;;;;;;;;4957826;28;20367;-69
2021/03/12 02:40:18;;;;;;;;;;;;;;;;;;4961174;28;19926;-68
2021/03/12 02:42:45;;;;;;;;;;;;;;;;;;4957692;28;19927;-68
2021/03/12 02:45:11;;;;;;;;;;;;;;;;;;4959476;28;20393;-67
2021/03/12 02:47:38;;;;;;;;;;;;;;;;;;4963222;28;19926;-68
2021/03/12 02:50:04;;;;;;;;;;;;;;;;;;4955497;28;20437;-68
2021/03/12 02:52:31;;;;;;;;;;;;;;;;;;4956422;28;20020;-68
2021/03/12 02:54:57;;;;;;;;;;;;;;;;;;4956432;28;20004;-68
2021/03/12 02:57:24;;;;;;;;;;;;;;;;;;4956765;28;20352;-68
2021/03/12 02:59:50;;;;;;;;;;;;;;;;;;4958298;28;19926;-68
2021/03/12 03:02:17;;;;;;;;;;;;;;;;;;4954817;28;20018;-68
2021/03/12 03:04:43;;;;;;;;;;;;;;;;;;4950166;28;19927;-68
2021/03/12 03:07:10;;;;;;;;;;;;;;;;;;4963499;28;19930;-68
2021/03/12 03:09:36;;;;;;;;;;;;;;;;;;4959904;28;20355;-68
2021/03/12 03:12:03;;;;;;;;;;;;;;;;;;4961773;28;19926;-68
2021/03/12 03:14:29;;;;;;;;;;;;;;;;;;4961533;28;19942;-68
2021/03/12 03:16:56;;;;;;;;;;;;;;;;;;4958862;28;19965;-67
2021/03/12 03:19:22;;;;;;;;;;;;;;;;;;4948739;28;19933;-68
2021/03/12 03:21:49;;;;;;;;;;;;;;;;;;4955870;28;19933;-68
2021/03/12 03:24:15;;;;;;;;;;;;;;;;;;4963172;28;19933;-69
2021/03/12 03:26:42;;;;;;;;;;;;;;;;;;4958244;28;20017;-68
2021/03/12 03:29:08;;;;;;;;;;;;;;;;;;4959495;28;19952;-68
2021/03/12 03:31:35;;;;;;;;;;;;;;;;;;4954347;28;20291;-68
2021/03/12 03:34:01;;;;;;;;;;;;;;;;;;4957328;28;19945;-67
2021/03/12 03:36:28;;;;;;;;;;;;;;;;;;4956820;28;20013;-68
2021/03/12 03:38:54;;;;;;;;;;;;;;;;;;4952138;28;19927;-67
2021/03/12 03:41:21;;;;;;;;;;;;;;;;;;4959189;28;19932;-66
2021/03/12 03:43:47;;;;;;;;;;;;;;;;;;4947930;28;19926;-66
2021/03/12 03:46:14;;;;;;;;;;;;;;;;;;4955455;28;19935;-67
2021/03/12 03:48:40;;;;;;;;;;;;;;;;;;4959732;28;19926;-67
2021/03/12 03:51:07;;;;;;;;;;;;;;;;;;4954436;28;20017;-67
2021/03/12 03:53:34;;;;;;;;;;;;;;;;;;4963532;28;19931;-67
2021/03/12 03:56:00;;;;;;;;;;;;;;;;;;4959434;28;20415;-67
2021/03/12 03:58:27;;;;;;;;;;;;;;;;;;4945847;28;19930;-68
2021/03/12 04:00:53;;;;;;;;;;;;;;;;;;4951198;28;20375;-68
2021/03/12 04:03:20;;;;;;;;;;;;;;;;;;4949865;28;20013;-67
2021/03/12 04:05:46;;;;;;;;;;;;;;;;;;4956970;28;20020;-67
2021/03/12 04:08:13;;;;;;;;;;;;;;;;;;4955741;28;19977;-67
2021/03/12 04:10:39;;;;;;;;;;;;;;;;;;4955513;28;19953;-67
2021/03/12 04:13:06;;;;;;;;;;;;;;;;;;4956209;28;19927;-67
2021/03/12 04:15:32;;;;;;;;;;;;;;;;;;4960431;28;19926;-68
2021/03/12 04:17:59;;;;;;;;;;;;;;;;;;4962116;28;19966;-67
2021/03/12 04:20:25;;;;;;;;;;;;;;;;;;4954851;28;19927;-68
2021/03/12 04:22:52;;;;;;;;;;;;;;;;;;4946512;29;20017;-69
2021/03/12 04:25:18;;;;;;;;;;;;;;;;;;4951461;28;19933;-68
2021/03/12 04:27:45;;;;;;;;;;;;;;;;;;4953196;28;19933;-68
2021/03/12 04:30:11;;;;;;;;;;;;;;;;;;4951714;28;19927;-68
2021/03/12 04:32:38;;;;;;;;;;;;;;;;;;4948383;28;19930;-68
2021/03/12 04:35:04;;;;;;;;;;;;;;;;;;4953541;28;19926;-68
2021/03/12 04:37:31;;;;;;;;;;;;;;;;;;4958551;28;19926;-68
2021/03/12 04:39:57;;;;;;;;;;;;;;;;;;4960230;28;20369;-68
2021/03/12 04:42:24;;;;;;;;;;;;;;;;;;4956641;28;20026;-68
2021/03/12 04:44:50;;;;;;;;;;;;;;;;;;4958910;28;19927;-68
2021/03/12 04:47:17;;;;;;;;;;;;;;;;;;4956514;28;20382;-68
2021/03/12 04:49:43;;;;;;;;;;;;;;;;;;4955930;28;19932;-68
2021/03/12 04:52:10;;;;;;;;;;;;;;;;;;4953162;28;20155;-68
2021/03/12 04:54:37;;;;;;;;;;;;;;;;;;4952044;28;19929;-68
2021/03/12 04:57:03;;;;;;;;;;;;;;;;;;4953987;28;19978;-68
2021/03/12 04:59:30;;;;;;;;;;;;;;;;;;4957436;28;20314;-68
2021/03/12 05:01:56;;;;;;;;;;;;;;;;;;4955869;28;19930;-67
2021/03/12 05:04:23;;;;;;;;;;;;;;;;;;4955798;28;20288;-69
2021/03/12 05:06:49;;;;;;;;;;;;;;;;;;4955784;28;19935;-68
2021/03/12 05:09:16;;;;;;;;;;;;;;;;;;4958307;28;20024;-67
2021/03/12 05:11:42;;;;;;;;;;;;;;;;;;4955647;28;19934;-68
2021/03/12 05:14:12;;;;;;;;;;;;;;;;;;4958801;28;19932;-68
2021/03/12 05:16:39;;;;;;;;;;;;;;;;;;4955551;28;19941;-68
2021/03/12 05:19:05;;;;;;;;;;;;;;;;;;4957897;28;19982;-67
2021/03/12 05:21:32;;;;;;;;;;;;;;;;;;4955079;28;19926;-67
2021/03/12 05:23:58;;;;;;;;;;;;;;;;;;4964479;28;19926;-67
2021/03/12 05:26:25;;;;;;;;;;;;;;;;;;4953517;28;19926;-67
2021/03/12 05:28:53;;;;;;;;;;;;;;;;;;4955250;28;20384;-68
2021/03/12 05:31:20;;;;;;;;;;;;;;;;;;4956335;28;19996;-68
2021/03/12 05:33:46;;;;;;;;;;;;;;;;;;4950107;28;20375;-68
2021/03/12 05:36:13;;;;;;;;;;;;;;;;;;4956125;28;19927;-68
2021/03/12 05:38:39;;;;;;;;;;;;;;;;;;4956996;28;19931;-67
2021/03/12 05:41:06;;;;;;;;;;;;;;;;;;4955107;28;19926;-68
2021/03/12 05:43:32;;;;;;;;;;;;;;;;;;4955311;28;20405;-68
2021/03/12 05:45:59;;;;;;;;;;;;;;;;;;4956125;28;19926;-68
2021/03/12 05:48:26;;;;;;;;;;;;;;;;;;4955696;28;19926;-68
2021/03/12 05:50:53;;;;;;;;;;;;;;;;;;4955709;28;19934;-68
2021/03/12 05:53:19;;;;;;;;;;;;;;;;;;4960694;28;19935;-67
2021/03/12 05:55:46;;;;;;;;;;;;;;;;;;4958510;28;19931;-68
2021/03/12 05:58:12;;;;;;;;;;;;;;;;;;4955694;28;20346;-68
2021/03/12 06:00:39;;;;;;;;;;;;;;;;;;4948752;28;19930;-68
2021/03/12 06:03:05;;;;;;;;;;;;;;;;;;4956626;28;19935;-68
2021/03/12 06:05:32;;;;;;;;;;;;;;;;;;4957133;28;19933;-68
2021/03/12 06:07:58;;;;;;;;;;;;;;;;;;4951855;28;19926;-67
2021/03/12 06:10:25;;;;;;;;;;;;;;;;;;4941185;28;19933;-68
2021/03/12 06:12:54;;;;;;;;;;;;;;;;;;4953273;28;20347;-67
2021/03/12 06:15:21;;;;;;;;;;;;;;;;;;4962137;28;19937;-68
2021/03/12 06:17:47;;;;;;;;;;;;;;;;;;4962698;28;19985;-68
2021/03/12 06:20:14;;;;;;;;;;;;;;;;;;4960489;28;19935;-68
2021/03/12 06:22:40;;;;;;;;;;;;;;;;;;4958134;28;20400;-68
2021/03/12 06:25:07;;;;;;;;;;;;;;;;;;4958409;28;20038;-67
2021/03/12 06:27:34;;;;;;;;;;;;;;;;;;4949211;28;19926;-68
2021/03/12 06:30:00;;;;;;;;;;;;;;;;;;4947761;28;19927;-67
2021/03/12 06:32:27;;;;;;;;;;;;;;;;;;4956862;28;19926;-67
2021/03/12 06:34:53;;;;;;;;;;;;;;;;;;4954811;28;20455;-66
2021/03/12 06:37:20;;;;;;;;;;;;;;;;;;4953818;28;19926;-67
2021/03/12 06:39:46;;;;;;;;;;;;;;;;;;4954100;28;19926;-67
2021/03/12 06:42:13;;;;;;;;;;;;;;;;;;4951375;28;19927;-66
2021/03/12 06:44:39;;;;;;;;;;;;;;;;;;4950129;28;19937;-67
2021/03/12 06:47:06;;;;;;;;;;;;;;;;;;4951728;28;20140;-67
2021/03/12 06:49:32;;;;;;;;;;;;;;;;;;4951787;28;20450;-67
2021/03/12 06:51:59;;;;;;;;;;;;;;;;;;4947321;28;19940;-67
2021/03/12 06:54:25;;;;;;;;;;;;;;;;;;4944727;28;19926;-66
2021/03/12 06:56:52;;;;;;;;;;;;;;;;;;4947024;29;19936;-67
2021/03/12 06:59:18;;;;;;;;;;;;;;;;;;4949463;29;20022;-66
2021/03/12 07:01:45;;;;;;;;;;;;;;;;;;4942688;29;20018;-67
2021/03/12 07:04:11;;;;;;;;;;;;;;;;;;4945007;28;19927;-67
2021/03/12 07:06:38;;;;;;;;;;;;;;;;;;4947035;29;19935;-66
2021/03/12 07:09:04;;;;;;;;;;;;;;;;;;4943240;29;19933;-66
2021/03/12 07:11:31;;;;;;;;;;;;;;;;;;4946955;28;19952;-67
2021/03/12 07:13:58;;;;;;;;;;;;;;;;;;4939908;29;19926;-68
2021/03/12 07:16:25;;;;;;;;;;;;;;;;;;4942531;29;19934;-67
2021/03/12 07:18:51;;;;;;;;;;;;;;;;;;4944859;29;20344;-67
2021/03/12 07:21:18;;;;;;;;;;;;;;;;;;4945077;28;19949;-66
2021/03/12 07:23:44;;;;;;;;;;;;;;;;;;4947208;28;20009;-66
2021/03/12 07:26:11;;;;;;;;;;;;;;;;;;4940341;29;19927;-65
2021/03/12 07:28:37;;;;;;;;;;;;;;;;;;4946461;29;19937;-66
2021/03/12 07:31:04;;;;;;;;;;;;;;;;;;4949520;28;20401;-66
2021/03/12 07:33:32;;;;;;;;;;;;;;;;;;4948466;28;20001;-65
2021/03/12 07:35:58;;;;;;;;;;;;;;;;;;4942554;29;19946;-65
2021/03/12 07:38:25;;;;;;;;;;;;;;;;;;4949393;29;19930;-65
2021/03/12 07:40:53;;;;;;;;;;;;;;;;;;4946059;28;20308;-66
2021/03/12 07:43:19;;;;;;;;;;;;;;;;;;4945412;28;19930;-66
2021/03/12 07:45:46;;;;;;;;;;;;;;;;;;4947721;28;19964;-66
2021/03/12 07:48:12;;;;;;;;;;;;;;;;;;4945872;28;19927;-65
2021/03/12 07:50:39;;;;;;;;;;;;;;;;;;4946726;28;19934;-65
2021/03/12 07:53:05;;;;;;;;;;;;;;;;;;4940333;28;20309;-65
2021/03/12 07:55:32;;;;;;;;;;;;;;;;;;4948266;28;20005;-65
2021/03/12 07:57:58;;;;;;;;;;;;;;;;;;4947562;28;19931;-65
2021/03/12 08:00:25;;;;;;;;;;;;;;;;;;4943312;29;19927;-66
2021/03/12 08:02:53;;;;;;;;;;;;;;;;;;4945721;28;19977;-65
2021/03/12 08:05:19;;;;;;;;;;;;;;;;;;4943708;28;20311;-66
2021/03/12 08:07:46;;;;;;;;;;;;;;;;;;4940333;28;19978;-66
2021/03/12 08:10:12;;;;;;;;;;;;;;;;;;4943648;28;19927;-66
2021/03/12 08:12:39;;;;;;;;;;;;;;;;;;4945697;28;19930;-66
2021/03/12 08:15:05;;;;;;;;;;;;;;;;;;4943949;29;19927;-65
2021/03/12 08:17:32;;;;;;;;;;;;;;;;;;4948581;29;19973;-66
2021/03/12 08:19:58;;;;;;;;;;;;;;;;;;4942706;29;20029;-65
2021/03/12 08:22:25;;;;;;;;;;;;;;;;;;4944184;28;19930;-65
2021/03/12 08:24:52;;;;;;;;;;;;;;;;;;4945430;29;20383;-66
2021/03/12 08:27:18;;;;;;;;;;;;;;;;;;4947019;29;19934;-66
2021/03/12 08:29:45;;;;;;;;;;;;;;;;;;4946506;29;20040;-67
2021/03/12 08:32:11;;;;;;;;;;;;;;;;;;4943774;29;20311;-66
2021/03/12 08:34:38;;;;;;;;;;;;;;;;;;4947748;28;20346;-66
2021/03/12 08:37:04;;;;;;;;;;;;;;;;;;4947511;28;20086;-67
2021/03/12 08:39:31;;;;;;;;;;;;;;;;;;4949151;28;19946;-66
2021/03/12 08:41:57;;;;;;;;;;;;;;;;;;4948123;28;19930;-66
2021/03/12 08:44:24;;;;;;;;;;;;;;;;;;4950825;28;19927;-66
2021/03/12 08:46:50;;;;;;;;;;;;;;;;;;4945745;29;20013;-65
2021/03/12 08:49:17;;;;;;;;;;;;;;;;;;4949895;29;19933;-66
2021/03/12 08:51:43;;;;;;;;;;;;;;;;;;4949002;29;19941;-66
2021/03/12 08:54:10;;;;;;;;;;;;;;;;;;4945616;28;20302;-66
2021/03/12 08:56:36;;;;;;;;;;;;;;;;;;4950303;28;19930;-66
2021/03/12 08:59:03;;;;;;;;;;;;;;;;;;4952117;28;20017;-66
2021/03/12 09:01:29;;;;;;;;;;;;;;;;;;4947384;28;19974;-66
2021/03/12 09:03:56;;;;;;;;;;;;;;;;;;4943497;28;20354;-65
2021/03/12 09:06:22;;;;;;;;;;;;;;;;;;4946672;28;20022;-65
2021/03/12 09:08:49;;;;;;;;;;;;;;;;;;4944308;28;20033;-65
2021/03/12 09:11:15;;;;;;;;;;;;;;;;;;4948896;29;20331;-65
2021/03/12 09:13:42;;;;;;;;;;;;;;;;;;4949483;29;19937;-65
2021/03/12 09:16:09;;;;;;;;;;;;;;;;;;4946412;29;20461;-67
2021/03/12 09:18:35;;;;;;;;;;;;;;;;;;4949229;28;20330;-66
2021/03/12 09:21:02;;;;;;;;;;;;;;;;;;4944683;28;20006;-64
2021/03/12 09:23:28;;;;;;;;;;;;;;;;;;4949162;29;20044;-66
2021/03/12 09:25:55;;;;;;;;;;;;;;;;;;4946684;29;20298;-66
2021/03/12 09:28:21;;;;;;;;;;;;;;;;;;4948229;29;19945;-66
2021/03/12 09:30:48;;;;;;;;;;;;;;;;;;4950409;29;19927;-67
2021/03/12 09:33:15;;;;;;;;;;;;;;;;;;4951211;28;19934;-66
2021/03/12 09:35:41;;;;;;;;;;;;;;;;;;4945818;29;19926;-66
2021/03/12 09:38:08;;;;;;;;;;;;;;;;;;4946418;29;19931;-67
2021/03/12 09:40:34;;;;;;;;;;;;;;;;;;4945261;29;20354;-66
2021/03/12 09:43:01;;;;;;;;;;;;;;;;;;4947647;28;19954;-67
2021/03/12 09:45:27;;;;;;;;;;;;;;;;;;4946823;28;19989;-67
2021/03/12 09:47:54;;;;;;;;;;;;;;;;;;4942235;28;19927;-67
2021/03/12 09:50:22;;;;;;;;;;;;;;;;;;4943822;28;19930;-65
2021/03/12 09:52:49;;;;;;;;;;;;;;;;;;4947722;28;20295;-68
2021/03/12 09:55:15;;;;;;;;;;;;;;;;;;4946216;29;20013;-66
2021/03/12 09:57:42;;;;;;;;;;;;;;;;;;4946632;28;19926;-68
2021/03/12 10:00:08;;;;;;;;;;;;;;;;;;4947956;29;19997;-66
2021/03/12 10:02:35;;;;;;;;;;;;;;;;;;4946890;28;20025;-66
2021/03/12 10:05:02;;;;;;;;;;;;;;;;;;4947166;28;19935;-66
2021/03/12 10:07:29;;;;;;;;;;;;;;;;;;4947370;28;19981;-66
2021/03/12 10:09:56;;;;;;;;;;;;;;;;;;4942782;28;19927;-67
2021/03/12 10:12:22;;;;;;;;;;;;;;;;;;4946059;28;20013;-67
2021/03/12 10:14:49;;;;;;;;;;;;;;;;;;4947908;28;20021;-67
2021/03/12 10:17:16;;;;;;;;;;;;;;;;;;4945875;28;19926;-67
2021/03/12 10:19:42;;;;;;;;;;;;;;;;;;4944494;28;20383;-67
2021/03/12 10:22:09;;;;;;;;;;;;;;;;;;4944935;28;19934;-67
2021/03/12 10:24:35;;;;;;;;;;;;;;;;;;4945910;28;20025;-67
2021/03/12 10:27:02;;;;;;;;;;;;;;;;;;4946070;28;20013;-66
2021/03/12 10:29:28;;;;;;;;;;;;;;;;;;4942833;28;19935;-67
2021/03/12 10:31:55;;;;;;;;;;;;;;;;;;4946235;29;19933;-67
2021/03/12 10:34:21;;;;;;;;;;;;;;;;;;4947938;28;20283;-67
2021/03/12 10:36:48;;;;;;;;;;;;;;;;;;4944389;28;19966;-67
2021/03/12 10:39:14;;;;;;;;;;;;;;;;;;4946039;29;20032;-67
2021/03/12 10:41:41;;;;;;;;;;;;;;;;;;4947979;28;19926;-67
2021/03/12 10:44:09;;;;;;;;;;;;;;;;;;4946163;28;20016;-67
2021/03/12 10:46:35;;;;;;;;;;;;;;;;;;4942967;28;19933;-67
2021/03/12 10:49:03;;;;;;;;;;;;;;;;;;4943272;28;19927;-67
2021/03/12 10:51:30;;;;;;;;;;;;;;;;;;4943517;28;19926;-67
2021/03/12 10:53:56;;;;;;;;;;;;;;;;;;4941168;28;19927;-67
2021/03/12 10:56:23;;;;;;;;;;;;;;;;;;4940116;28;20021;-67
2021/03/12 10:58:50;;;;;;;;;;;;;;;;;;4946391;28;20024;-67
2021/03/12 11:01:19;;;;;;;;;;;;;;;;;;4947922;28;19934;-67
2021/03/12 11:03:46;;;;;;;;;;;;;;;;;;4947998;28;19933;-67
2021/03/12 11:06:13;;;;;;;;;;;;;;;;;;4941683;28;19926;-68
2021/03/12 11:08:39;;;;;;;;;;;;;;;;;;4950200;28;19937;-68
2021/03/12 11:11:07;;;;;;;;;;;;;;;;;;4958904;28;19926;-68
2021/03/12 11:13:33;;;;;;;;;;;;;;;;;;4943021;28;19984;-67
2021/03/12 11:16:00;;;;;;;;;;;;;;;;;;4947841;28;19927;-67
2021/03/12 11:18:29;;;;;;;;;;;;;;;;;;4949960;28;20339;-68
2021/03/12 11:20:55;;;;;;;;;;;;;;;;;;4947280;29;19935;-67
2021/03/12 11:23:22;;;;;;;;;;;;;;;;;;4946639;28;20018;-67
2021/03/12 11:25:48;;;;;;;;;;;;;;;;;;4944129;29;20417;-68
2021/03/12 11:28:15;;;;;;;;;;;;;;;;;;4949335;28;19969;-67
2021/03/12 11:30:41;;;;;;;;;;;;;;;;;;4943559;29;20055;-67
2021/03/12 11:33:08;;;;;;;;;;;;;;;;;;4947499;28;19937;-67
2021/03/12 11:35:34;;;;;;;;;;;;;;;;;;4943641;28;20292;-67
2021/03/12 11:38:01;;;;;;;;;;;;;;;;;;4944207;28;19927;-67
2021/03/12 11:40:27;;;;;;;;;;;;;;;;;;4944630;29;19933;-67
2021/03/12 11:42:54;;;;;;;;;;;;;;;;;;4946861;29;19969;-68
2021/03/12 11:45:20;;;;;;;;;;;;;;;;;;4947525;28;19935;-68
2021/03/12 11:47:47;;;;;;;;;;;;;;;;;;4940701;28;19985;-68
2021/03/12 11:50:14;;;;;;;;;;;;;;;;;;4956075;29;19927;-68
2021/03/12 11:52:40;;;;;;;;;;;;;;;;;;4948250;28;20032;-68
2021/03/12 11:55:08;;;;;;;;;;;;;;;;;;4940428;28;21962;-68
2021/03/12 11:57:34;;;;;;;;;;;;;;;;;;4944692;28;19977;-68
2021/03/12 12:00:01;;;;;;;;;;;;;;;;;;4944115;28;19927;-68
2021/03/12 12:02:28;;;;;;;;;;;;;;;;;;4948459;28;19969;-68
2021/03/12 12:04:54;;;;;;;;;;;;;;;;;;4944355;29;20299;-68
2021/03/12 12:07:21;;;;;;;;;;;;;;;;;;4942422;29;20379;-68
2021/03/12 12:09:47;;;;;;;;;;;;;;;;;;4941528;28;19935;-68
2021/03/12 12:12:14;;;;;;;;;;;;;;;;;;4951176;28;20402;-69
2021/03/12 12:14:40;;;;;;;;;;;;;;;;;;4945360;29;20160;-67
2021/03/12 12:17:07;;;;;;;;;;;;;;;;;;4950110;28;19933;-67
2021/03/12 12:19:33;;;;;;;;;;;;;;;;;;4942853;28;20025;-67
2021/03/12 12:22:00;;;;;;;;;;;;;;;;;;4945544;28;20425;-72
2021/03/12 12:24:26;;;;;;;;;;;;;;;;;;4944136;28;19926;-68
2021/03/12 12:26:53;;;;;;;;;;;;;;;;;;4949396;28;20020;-69
2021/03/12 12:29:19;;;;;;;;;;;;;;;;;;4948044;28;19985;-68
2021/03/12 12:31:46;;;;;;;;;;;;;;;;;;4953621;28;19931;-68
2021/03/12 12:34:12;;;;;;;;;;;;;;;;;;4952486;28;20105;-67
2021/03/12 12:36:39;;;;;;;;;;;;;;;;;;4950006;28;19931;-66
2021/03/12 12:39:05;;;;;;;;;;;;;;;;;;4942318;28;19985;-67
2021/03/12 12:41:32;;;;;;;;;;;;;;;;;;4949030;28;19930;-66
2021/03/12 12:43:58;;;;;;;;;;;;;;;;;;4946227;28;19984;-66
2021/03/12 12:46:25;;;;;;;;;;;;;;;;;;4945077;28;19956;-67
2021/03/12 12:48:51;;;;;;;;;;;;;;;;;;4949382;29;19933;-67
2021/03/12 12:51:18;;;;;;;;;;;;;;;;;;4945925;29;19970;-67
2021/03/12 12:53:44;;;;;;;;;;;;;;;;;;4949146;29;19934;-67
2021/03/12 12:56:11;;;;;;;;;;;;;;;;;;4948272;29;19926;-67
2021/03/12 12:58:37;;;;;;;;;;;;;;;;;;4949761;29;19927;-67
2021/03/12 13:01:04;;;;;;;;;;;;;;;;;;4947498;28;20402;-67
2021/03/12 13:03:30;;;;;;;;;;;;;;;;;;4945567;29;19927;-67
2021/03/12 13:05:57;;;;;;;;;;;;;;;;;;4946349;29;20037;-67
2021/03/12 13:08:23;;;;;;;;;;;;;;;;;;4951357;28;19962;-67
2021/03/12 13:10:50;;;;;;;;;;;;;;;;;;4950672;28;19926;-67
2021/03/12 13:13:16;;;;;;;;;;;;;;;;;;4945599;28;19927;-67
2021/03/12 13:15:46;;;;;;;;;;;;;;;;;;4949092;28;20379;-67
2021/03/12 13:18:13;;;;;;;;;;;;;;;;;;4948037;28;19969;-67
2021/03/12 13:20:40;;;;;;;;;;;;;;;;;;4947997;28;19927;-66
2021/03/12 13:23:06;;;;;;;;;;;;;;;;;;4950238;28;20314;-67
2021/03/12 13:25:33;;;;;;;;;;;;;;;;;;4949733;28;19969;-68
2021/03/12 13:28:01;;;;;;;;;;;;;;;;;;4946452;28;20017;-67
2021/03/12 13:30:28;;;;;;;;;;;;;;;;;;4948827;28;19926;-68
2021/03/12 13:32:54;;;;;;;;;;;;;;;;;;4945939;28;19970;-68
2021/03/12 13:35:21;;;;;;;;;;;;;;;;;;4948207;28;19927;-68
2021/03/12 13:37:47;;;;;;;;;;;;;;;;;;4946911;28;20042;-68
2021/03/12 13:40:14;;;;;;;;;;;;;;;;;;4945662;28;20102;-69
2021/03/12 13:42:40;;;;;;;;;;;;;;;;;;4949457;28;19926;-68
2021/03/12 13:45:07;;;;;;;;;;;;;;;;;;4945546;28;19933;-69
2021/03/12 13:47:33;;;;;;;;;;;;;;;;;;4941998;28;19938;-67
2021/03/12 13:50:00;;;;;;;;;;;;;;;;;;4947022;28;19934;-67
2021/03/12 13:52:26;;;;;;;;;;;;;;;;;;4948478;28;19933;-68
2021/03/12 13:54:53;;;;;;;;;;;;;;;;;;4943642;28;19927;-68
2021/03/12 13:57:19;;;;;;;;;;;;;;;;;;4944018;28;20406;-68
2021/03/12 13:59:47;;;;;;;;;;;;;;;;;;4945963;28;19972;-68
2021/03/12 14:02:13;;;;;;;;;;;;;;;;;;4948613;28;20025;-68
2021/03/12 14:04:40;;;;;;;;;;;;;;;;;;4945615;29;19927;-68
2021/03/12 14:07:06;;;;;;;;;;;;;;;;;;4949170;28;20012;-68
2021/03/12 14:09:33;;;;;;;;;;;;;;;;;;4944007;28;19930;-68
2021/03/12 14:11:59;;;;;;;;;;;;;;;;;;4948620;28;19970;-69
2021/03/12 14:14:26;;;;;;;;;;;;;;;;;;4947758;28;20006;-68
2021/03/12 14:16:52;;;;;;;;;;;;;;;;;;4942181;28;19970;-68
2021/03/12 14:19:21;;;;;;;;;;;;;;;;;;4950823;28;20399;-68
2021/03/12 14:21:47;;;;;;;;;;;;;;;;;;4947697;28;20382;-68
2021/03/12 14:24:15;;;;;;;;;;;;;;;;;;4943459;28;19926;-68
2021/03/12 14:26:41;;;;;;;;;;;;;;;;;;4941923;28;19927;-69
2021/03/12 14:29:08;;;;;;;;;;;;;;;;;;4950028;28;19933;-69
2021/03/12 14:31:34;;;;;;;;;;;;;;;;;;4944657;28;19933;-69
2021/03/12 14:34:01;;;;;;;;;;;;;;;;;;4942984;28;20027;-68
2021/03/12 14:36:27;;;;;;;;;;;;;;;;;;4946715;28;19989;-69
2021/03/12 14:38:54;;;;;;;;;;;;;;;;;;4946097;28;20126;-69
2021/03/12 14:41:21;;;;;;;;;;;;;;;;;;4948222;28;19958;-68
2021/03/12 14:43:47;;;;;;;;;;;;;;;;;;4945609;28;20421;-68
2021/03/12 14:46:14;;;;;;;;;;;;;;;;;;4947195;28;19926;-68
2021/03/12 14:48:40;;;;;;;;;;;;;;;;;;4947371;28;20022;-67
2021/03/12 14:51:07;;;;;;;;;;;;;;;;;;4944476;28;20081;-68
2021/03/12 14:53:33;;;;;;;;;;;;;;;;;;4949176;28;20450;-68
2021/03/12 14:56:00;;;;;;;;;;;;;;;;;;4947122;28;20022;-68
2021/03/12 14:58:26;;;;;;;;;;;;;;;;;;4944565;28;19927;-68
2021/03/12 15:00:53;;;;;;;;;;;;;;;;;;4942747;28;19927;-68
2021/03/12 15:03:20;;;;;;;;;;;;;;;;;;4945977;28;20450;-68
2021/03/12 15:05:46;;;;;;;;;;;;;;;;;;4943788;28;20292;-68
2021/03/12 15:08:13;;;;;;;;;;;;;;;;;;4946338;28;20352;-68
2021/03/12 15:10:39;;;;;;;;;;;;;;;;;;4948465;28;20021;-68
2021/03/12 15:13:06;;;;;;;;;;;;;;;;;;4954404;28;19926;-69
2021/03/12 15:15:33;;;;;;;;;;;;;;;;;;4954053;28;19934;-69
2021/03/12 15:17:59;;;;;;;;;;;;;;;;;;4949410;28;19930;-68
2021/03/12 15:20:26;;;;;;;;;;;;;;;;;;4954069;28;19985;-69
2021/03/12 15:22:52;;;;;;;;;;;;;;;;;;4956886;28;20017;-69
2021/03/12 15:25:19;;;;;;;;;;;;;;;;;;4962106;28;20051;-68
2021/03/12 15:27:45;;;;;;;;;;;;;;;;;;4954299;28;19969;-69
2021/03/12 15:30:12;;;;;;;;;;;;;;;;;;4958446;28;19930;-68
2021/03/12 15:32:39;;;;;;;;;;;;;;;;;;4952586;28;19930;-69
2021/03/12 15:35:05;;;;;;;;;;;;;;;;;;4951866;28;19927;-69
2021/03/12 15:37:32;;;;;;;;;;;;;;;;;;4955726;28;20023;-68
2021/03/12 15:39:58;;;;;;;;;;;;;;;;;;4943744;28;19931;-68
2021/03/12 15:42:25;;;;;;;;;;;;;;;;;;4950789;28;19975;-69
2021/03/12 15:44:51;;;;;;;;;;;;;;;;;;4952455;28;19926;-69
2021/03/12 15:47:18;;;;;;;;;;;;;;;;;;4951519;28;19933;-68
2021/03/12 15:49:44;;;;;;;;;;;;;;;;;;4954199;28;19930;-68
2021/03/12 15:52:11;;;;;;;;;;;;;;;;;;4945486;29;19976;-68
2021/03/12 15:54:37;;;;;;;;;;;;;;;;;;4943730;28;19933;-68
2021/03/12 15:57:04;;;;;;;;;;;;;;;;;;4954586;28;20021;-68
2021/03/12 15:59:30;;;;;;;;;;;;;;;;;;4963411;28;19977;-68
2021/03/12 16:01:59;;;;;;;;;;;;;;;;;;4953012;28;20395;-67
2021/03/12 16:04:26;;;;;;;;;;;;;;;;;;4950770;28;19926;-67
2021/03/12 16:06:52;;;;;;;;;;;;;;;;;;4951397;28;20017;-69
2021/03/12 16:09:19;;;;;;;;;;;;;;;;;;4944714;28;20343;-69
2021/03/12 16:11:46;;;;;;;;;;;;;;;;;;4960767;28;19962;-70
2021/03/12 16:14:12;;;;;;;;;;;;;;;;;;4953869;28;20385;-68
2021/03/12 16:16:39;;;;;;;;;;;;;;;;;;4957631;28;19934;-70
2021/03/12 16:19:05;;;;;;;;;;;;;;;;;;4961504;28;19927;-67
2021/03/12 16:21:32;;;;;;;;;;;;;;;;;;4954083;28;19927;-68
2021/03/12 16:23:58;;;;;;;;;;;;;;;;;;4952808;28;20028;-68
2021/03/12 16:26:25;;;;;;;;;;;;;;;;;;4951350;29;20413;-68
2021/03/12 16:28:53;;;;;;;;;;;;;;;;;;4950129;29;20458;-67
2021/03/12 16:31:20;;;;;;;;;;;;;;;;;;4952577;28;19927;-70
2021/03/12 16:33:47;;;;;;;;;;;;;;;;;;4950418;29;19977;-67
2021/03/12 16:36:13;;;;;;;;;;;;;;;;;;4944816;29;19934;-69
2021/03/12 16:38:40;;;;;;;;;;;;;;;;;;4949403;28;19927;-70
2021/03/12 16:41:06;;;;;;;;;;;;;;;;;;4953837;28;20016;-70